sensor_id;sensor_type;location;lat;lon;timestamp;P1;durP1;ratioP1;P2;durP2;ratioP2
26311;SDS011;14019;56.964;24.016;2023-02-15T00:01:12;13.57;;;5.75;;
26311;SDS011;14019;56.964;24.016;2023-02-15T00:03:58;15.98;;;6.45;;
26311;SDS011;14019;56.964;24.016;2023-02-15T00:06:44;13.00;;;5.93;;
26311;SDS011;14019;56.964;24.016;2023-02-15T00:09:31;16.52;;;5.78;;
26311;SDS011;14019;56.964;24.016;2023-02-15T00:12:17;14.15;;;5.70;;
26311;SDS011;14019;56.964;24.016;2023-02-15T00:15:03;16.58;;;6.20;;
26311;SDS011;14019;56.964;24.016;2023-02-15T00:17:50;19.30;;;6.50;;
26311;SDS011;14019;56.964;24.016;2023-02-15T00:20:37;17.98;;;6.70;;
26311;SDS011;14019;56.964;24.016;2023-02-15T00:23:23;17.75;;;6.10;;
26311;SDS011;14019;56.964;24.016;2023-02-15T00:26:14;13.07;;;5.43;;
26311;SDS011;14019;56.964;24.016;2023-02-15T00:29:02;15.23;;;5.93;;
26311;SDS011;14019;56.964;24.016;2023-02-15T00:31:48;14.88;;;5.60;;
26311;SDS011;14019;56.964;24.016;2023-02-15T00:34:35;14.80;;;5.90;;
26311;SDS011;14019;56.964;24.016;2023-02-15T00:37:21;11.38;;;4.95;;
26311;SDS011;14019;56.964;24.016;2023-02-15T00:40:07;11.57;;;5.13;;
26311;SDS011;14019;56.964;24.016;2023-02-15T00:42:54;14.75;;;5.40;;
26311;SDS011;14019;56.964;24.016;2023-02-15T00:45:40;12.40;;;5.13;;
26311;SDS011;14019;56.964;24.016;2023-02-15T00:48:27;16.27;;;5.68;;
26311;SDS011;14019;56.964;24.016;2023-02-15T00:51:14;11.00;;;4.75;;
26311;SDS011;14019;56.964;24.016;2023-02-15T00:54:00;11.52;;;5.22;;
26311;SDS011;14019;56.964;24.016;2023-02-15T00:56:47;11.35;;;4.70;;
26311;SDS011;14019;56.964;24.016;2023-02-15T00:59:34;12.98;;;5.00;;
26311;SDS011;14019;56.964;24.016;2023-02-15T01:02:21;13.77;;;5.75;;
26311;SDS011;14019;56.964;24.016;2023-02-15T01:05:07;11.75;;;5.13;;
26311;SDS011;14019;56.964;24.016;2023-02-15T01:07:55;13.48;;;5.10;;
26311;SDS011;14019;56.964;24.016;2023-02-15T01:10:44;13.02;;;5.72;;
26311;SDS011;14019;56.964;24.016;2023-02-15T01:13:33;14.43;;;5.68;;
26311;SDS011;14019;56.964;24.016;2023-02-15T01:16:21;16.17;;;5.82;;
26311;SDS011;14019;56.964;24.016;2023-02-15T01:19:08;15.18;;;6.10;;
26311;SDS011;14019;56.964;24.016;2023-02-15T01:21:54;13.48;;;5.75;;
26311;SDS011;14019;56.964;24.016;2023-02-15T01:24:41;13.60;;;5.82;;
26311;SDS011;14019;56.964;24.016;2023-02-15T01:27:27;16.92;;;6.07;;
26311;SDS011;14019;56.964;24.016;2023-02-15T01:30:19;18.38;;;6.15;;
26311;SDS011;14019;56.964;24.016;2023-02-15T01:33:11;14.25;;;5.68;;
26311;SDS011;14019;56.964;24.016;2023-02-15T01:36:04;14.77;;;5.85;;
26311;SDS011;14019;56.964;24.016;2023-02-15T01:38:50;12.93;;;5.40;;
26311;SDS011;14019;56.964;24.016;2023-02-15T01:41:36;16.73;;;6.00;;
26311;SDS011;14019;56.964;24.016;2023-02-15T01:47:36;13.23;;;5.20;;
26311;SDS011;14019;56.964;24.016;2023-02-15T01:50:31;13.80;;;5.25;;
26311;SDS011;14019;56.964;24.016;2023-02-15T01:53:28;15.55;;;5.60;;
26311;SDS011;14019;56.964;24.016;2023-02-15T01:56:39;12.05;;;5.30;;
26311;SDS011;14019;56.964;24.016;2023-02-15T01:59:26;19.13;;;5.70;;
26311;SDS011;14019;56.964;24.016;2023-02-15T02:02:13;16.00;;;6.03;;
26311;SDS011;14019;56.964;24.016;2023-02-15T02:05:03;18.63;;;6.18;;
26311;SDS011;14019;56.964;24.016;2023-02-15T02:07:53;13.57;;;5.93;;
26311;SDS011;14019;56.964;24.016;2023-02-15T02:10:41;15.05;;;5.78;;
26311;SDS011;14019;56.964;24.016;2023-02-15T02:13:27;22.80;;;8.25;;
26311;SDS011;14019;56.964;24.016;2023-02-15T02:16:20;17.70;;;6.95;;
26311;SDS011;14019;56.964;24.016;2023-02-15T02:22:23;14.98;;;5.60;;
26311;SDS011;14019;56.964;24.016;2023-02-15T02:47:07;12.18;;;4.40;;
26311;SDS011;14019;56.964;24.016;2023-02-15T02:50:15;11.55;;;4.72;;
26311;SDS011;14019;56.964;24.016;2023-02-15T02:53:13;12.20;;;4.70;;
26311;SDS011;14019;56.964;24.016;2023-02-15T02:56:13;11.48;;;4.47;;
26311;SDS011;14019;56.964;24.016;2023-02-15T02:59:25;11.50;;;4.43;;
26311;SDS011;14019;56.964;24.016;2023-02-15T03:02:26;15.52;;;4.88;;
26311;SDS011;14019;56.964;24.016;2023-02-15T03:05:19;11.85;;;4.55;;
26311;SDS011;14019;56.964;24.016;2023-02-15T03:08:08;9.00;;;4.15;;
26311;SDS011;14019;56.964;24.016;2023-02-15T03:10:58;14.10;;;5.00;;
26311;SDS011;14019;56.964;24.016;2023-02-15T03:13:47;12.85;;;4.65;;
26311;SDS011;14019;56.964;24.016;2023-02-15T03:16:34;14.57;;;4.75;;
26311;SDS011;14019;56.964;24.016;2023-02-15T03:19:32;10.55;;;4.72;;
26311;SDS011;14019;56.964;24.016;2023-02-15T03:25:32;13.27;;;4.63;;
26311;SDS011;14019;56.964;24.016;2023-02-15T03:28:25;11.90;;;5.28;;
26311;SDS011;14019;56.964;24.016;2023-02-15T03:31:16;19.58;;;7.35;;
26311;SDS011;14019;56.964;24.016;2023-02-15T03:34:06;19.48;;;7.75;;
26311;SDS011;14019;56.964;24.016;2023-02-15T03:42:41;19.25;;;7.82;;
26311;SDS011;14019;56.964;24.016;2023-02-15T03:45:29;17.88;;;7.32;;
26311;SDS011;14019;56.964;24.016;2023-02-15T03:48:19;20.23;;;8.50;;
26311;SDS011;14019;56.964;24.016;2023-02-15T03:51:08;16.15;;;7.45;;
26311;SDS011;14019;56.964;24.016;2023-02-15T03:54:28;17.55;;;8.20;;
26311;SDS011;14019;56.964;24.016;2023-02-15T03:57:29;14.93;;;6.65;;
26311;SDS011;14019;56.964;24.016;2023-02-15T04:00:35;14.70;;;6.03;;
26311;SDS011;14019;56.964;24.016;2023-02-15T04:03:49;17.88;;;6.38;;
26311;SDS011;14019;56.964;24.016;2023-02-15T04:06:45;15.10;;;6.55;;
26311;SDS011;14019;56.964;24.016;2023-02-15T04:09:31;16.75;;;6.25;;
26311;SDS011;14019;56.964;24.016;2023-02-15T04:12:35;9.98;;;4.75;;
26311;SDS011;14019;56.964;24.016;2023-02-15T04:15:22;13.95;;;5.30;;
26311;SDS011;14019;56.964;24.016;2023-02-15T04:18:27;12.23;;;4.85;;
26311;SDS011;14019;56.964;24.016;2023-02-15T04:21:31;12.32;;;4.70;;
26311;SDS011;14019;56.964;24.016;2023-02-15T04:24:36;14.02;;;5.13;;
26311;SDS011;14019;56.964;24.016;2023-02-15T04:27:42;12.23;;;5.13;;
26311;SDS011;14019;56.964;24.016;2023-02-15T04:30:35;19.83;;;6.05;;
26311;SDS011;14019;56.964;24.016;2023-02-15T04:33:21;11.75;;;5.28;;
26311;SDS011;14019;56.964;24.016;2023-02-15T04:36:07;16.58;;;5.63;;
26311;SDS011;14019;56.964;24.016;2023-02-15T04:38:53;18.35;;;5.97;;
26311;SDS011;14019;56.964;24.016;2023-02-15T04:41:40;13.70;;;5.90;;
26311;SDS011;14019;56.964;24.016;2023-02-15T04:44:26;15.88;;;6.00;;
26311;SDS011;14019;56.964;24.016;2023-02-15T04:47:12;15.77;;;6.15;;
26311;SDS011;14019;56.964;24.016;2023-02-15T04:49:58;12.70;;;5.85;;
26311;SDS011;14019;56.964;24.016;2023-02-15T04:52:44;16.33;;;5.90;;
26311;SDS011;14019;56.964;24.016;2023-02-15T04:55:30;13.18;;;5.85;;
26311;SDS011;14019;56.964;24.016;2023-02-15T04:58:16;13.20;;;5.93;;
26311;SDS011;14019;56.964;24.016;2023-02-15T05:01:02;15.40;;;6.20;;
26311;SDS011;14019;56.964;24.016;2023-02-15T05:03:49;14.70;;;6.15;;
26311;SDS011;14019;56.964;24.016;2023-02-15T05:06:35;14.90;;;6.38;;
26311;SDS011;14019;56.964;24.016;2023-02-15T05:09:21;14.27;;;5.72;;
26311;SDS011;14019;56.964;24.016;2023-02-15T05:12:07;12.60;;;6.10;;
26311;SDS011;14019;56.964;24.016;2023-02-15T05:14:54;16.67;;;6.40;;
26311;SDS011;14019;56.964;24.016;2023-02-15T05:17:40;14.38;;;6.10;;
26311;SDS011;14019;56.964;24.016;2023-02-15T05:20:26;19.58;;;7.05;;
26311;SDS011;14019;56.964;24.016;2023-02-15T05:23:12;16.55;;;6.57;;
26311;SDS011;14019;56.964;24.016;2023-02-15T05:25:58;18.92;;;7.22;;
26311;SDS011;14019;56.964;24.016;2023-02-15T05:29:03;19.48;;;7.38;;
26311;SDS011;14019;56.964;24.016;2023-02-15T05:31:50;18.58;;;7.22;;
26311;SDS011;14019;56.964;24.016;2023-02-15T05:34:36;18.77;;;7.20;;
26311;SDS011;14019;56.964;24.016;2023-02-15T05:37:22;14.82;;;6.63;;
26311;SDS011;14019;56.964;24.016;2023-02-15T05:40:09;17.90;;;7.30;;
26311;SDS011;14019;56.964;24.016;2023-02-15T05:42:56;15.93;;;7.28;;
26311;SDS011;14019;56.964;24.016;2023-02-15T05:45:46;16.95;;;7.32;;
26311;SDS011;14019;56.964;24.016;2023-02-15T05:48:33;19.77;;;7.65;;
26311;SDS011;14019;56.964;24.016;2023-02-15T05:51:19;25.55;;;8.13;;
26311;SDS011;14019;56.964;24.016;2023-02-15T05:54:05;23.02;;;9.20;;
26311;SDS011;14019;56.964;24.016;2023-02-15T05:56:52;26.75;;;9.93;;
26311;SDS011;14019;56.964;24.016;2023-02-15T05:59:38;23.10;;;9.80;;
26311;SDS011;14019;56.964;24.016;2023-02-15T06:02:24;21.88;;;9.82;;
26311;SDS011;14019;56.964;24.016;2023-02-15T06:05:10;28.17;;;10.43;;
26311;SDS011;14019;56.964;24.016;2023-02-15T06:07:56;27.58;;;10.90;;
26311;SDS011;14019;56.964;24.016;2023-02-15T06:10:45;24.33;;;10.40;;
26311;SDS011;14019;56.964;24.016;2023-02-15T06:13:31;25.25;;;10.95;;
26311;SDS011;14019;56.964;24.016;2023-02-15T06:16:22;26.88;;;10.93;;
26311;SDS011;14019;56.964;24.016;2023-02-15T06:19:08;25.35;;;11.35;;
26311;SDS011;14019;56.964;24.016;2023-02-15T06:21:54;23.40;;;10.50;;
26311;SDS011;14019;56.964;24.016;2023-02-15T06:24:40;27.90;;;10.90;;
26311;SDS011;14019;56.964;24.016;2023-02-15T06:27:27;27.20;;;9.80;;
26311;SDS011;14019;56.964;24.016;2023-02-15T06:30:13;22.55;;;9.68;;
26311;SDS011;14019;56.964;24.016;2023-02-15T06:33:00;23.50;;;9.25;;
26311;SDS011;14019;56.964;24.016;2023-02-15T06:35:46;27.50;;;10.35;;
26311;SDS011;14019;56.964;24.016;2023-02-15T06:38:32;28.25;;;9.30;;
26311;SDS011;14019;56.964;24.016;2023-02-15T06:41:19;25.38;;;9.77;;
26311;SDS011;14019;56.964;24.016;2023-02-15T06:44:05;29.08;;;10.40;;
26311;SDS011;14019;56.964;24.016;2023-02-15T06:46:51;29.20;;;11.13;;
26311;SDS011;14019;56.964;24.016;2023-02-15T06:49:37;24.95;;;10.82;;
26311;SDS011;14019;56.964;24.016;2023-02-15T06:52:23;34.85;;;12.00;;
26311;SDS011;14019;56.964;24.016;2023-02-15T06:55:09;33.72;;;12.07;;
26311;SDS011;14019;56.964;24.016;2023-02-15T06:57:55;27.17;;;11.43;;
26311;SDS011;14019;56.964;24.016;2023-02-15T07:00:41;33.25;;;12.60;;
26311;SDS011;14019;56.964;24.016;2023-02-15T07:03:28;32.92;;;13.38;;
26311;SDS011;14019;56.964;24.016;2023-02-15T07:06:14;54.47;;;12.23;;
26311;SDS011;14019;56.964;24.016;2023-02-15T07:09:00;37.10;;;10.05;;
26311;SDS011;14019;56.964;24.016;2023-02-15T07:11:46;28.58;;;9.85;;
26311;SDS011;14019;56.964;24.016;2023-02-15T07:14:51;29.85;;;10.25;;
26311;SDS011;14019;56.964;24.016;2023-02-15T07:17:37;26.95;;;9.40;;
26311;SDS011;14019;56.964;24.016;2023-02-15T07:20:24;54.67;;;8.80;;
26311;SDS011;14019;56.964;24.016;2023-02-15T07:23:13;77.90;;;8.95;;
26311;SDS011;14019;56.964;24.016;2023-02-15T07:25:59;49.33;;;8.98;;
26311;SDS011;14019;56.964;24.016;2023-02-15T07:28:46;34.75;;;8.68;;
26311;SDS011;14019;56.964;24.016;2023-02-15T07:31:32;24.10;;;9.35;;
26311;SDS011;14019;56.964;24.016;2023-02-15T07:34:18;63.20;;;9.13;;
26311;SDS011;14019;56.964;24.016;2023-02-15T07:37:04;32.30;;;9.25;;
26311;SDS011;14019;56.964;24.016;2023-02-15T07:39:50;32.20;;;10.20;;
26311;SDS011;14019;56.964;24.016;2023-02-15T07:42:36;92.70;;;11.13;;
26311;SDS011;14019;56.964;24.016;2023-02-15T07:45:22;69.18;;;10.52;;
26311;SDS011;14019;56.964;24.016;2023-02-15T07:48:09;31.35;;;10.10;;
26311;SDS011;14019;56.964;24.016;2023-02-15T07:50:58;31.30;;;9.98;;
26311;SDS011;14019;56.964;24.016;2023-02-15T07:53:45;74.20;;;10.90;;
26311;SDS011;14019;56.964;24.016;2023-02-15T07:56:32;57.25;;;10.35;;
26311;SDS011;14019;56.964;24.016;2023-02-15T07:59:21;46.30;;;10.07;;
26311;SDS011;14019;56.964;24.016;2023-02-15T08:02:10;34.05;;;11.10;;
26311;SDS011;14019;56.964;24.016;2023-02-15T08:04:56;45.10;;;11.10;;
26311;SDS011;14019;56.964;24.016;2023-02-15T08:07:42;39.22;;;12.55;;
26311;SDS011;14019;56.964;24.016;2023-02-15T08:10:28;53.88;;;14.50;;
26311;SDS011;14019;56.964;24.016;2023-02-15T08:13:33;43.88;;;12.05;;
26311;SDS011;14019;56.964;24.016;2023-02-15T08:16:29;67.35;;;9.38;;
26311;SDS011;14019;56.964;24.016;2023-02-15T08:19:27;121.68;;;10.43;;
26311;SDS011;14019;56.964;24.016;2023-02-15T08:22:15;89.20;;;9.80;;
26311;SDS011;14019;56.964;24.016;2023-02-15T08:25:01;44.47;;;9.88;;
26311;SDS011;14019;56.964;24.016;2023-02-15T08:27:49;96.80;;;10.55;;
26311;SDS011;14019;56.964;24.016;2023-02-15T08:30:35;65.97;;;9.18;;
26311;SDS011;14019;56.964;24.016;2023-02-15T08:33:21;85.53;;;10.07;;
26311;SDS011;14019;56.964;24.016;2023-02-15T08:36:09;28.95;;;9.82;;
26311;SDS011;14019;56.964;24.016;2023-02-15T08:38:57;35.75;;;11.07;;
26311;SDS011;14019;56.964;24.016;2023-02-15T08:41:45;29.58;;;11.00;;
26311;SDS011;14019;56.964;24.016;2023-02-15T08:44:32;25.90;;;9.93;;
26311;SDS011;14019;56.964;24.016;2023-02-15T08:47:18;80.72;;;9.75;;
26311;SDS011;14019;56.964;24.016;2023-02-15T08:50:05;30.02;;;8.63;;
26311;SDS011;14019;56.964;24.016;2023-02-15T08:52:51;26.35;;;7.55;;
26311;SDS011;14019;56.964;24.016;2023-02-15T08:55:38;44.67;;;7.40;;
26311;SDS011;14019;56.964;24.016;2023-02-15T08:58:25;66.43;;;8.63;;
26311;SDS011;14019;56.964;24.016;2023-02-15T09:01:12;19.73;;;8.13;;
26311;SDS011;14019;56.964;24.016;2023-02-15T09:04:04;22.23;;;9.35;;
26311;SDS011;14019;56.964;24.016;2023-02-15T09:06:54;23.67;;;10.23;;
26311;SDS011;14019;56.964;24.016;2023-02-15T09:09:40;49.17;;;9.80;;
26311;SDS011;14019;56.964;24.016;2023-02-15T09:12:26;25.48;;;9.93;;
26311;SDS011;14019;56.964;24.016;2023-02-15T09:15:11;23.08;;;9.70;;
26311;SDS011;14019;56.964;24.016;2023-02-15T09:17:57;21.35;;;8.43;;
26311;SDS011;14019;56.964;24.016;2023-02-15T09:20:50;20.90;;;8.25;;
26311;SDS011;14019;56.964;24.016;2023-02-15T09:23:37;18.58;;;8.35;;
26311;SDS011;14019;56.964;24.016;2023-02-15T09:26:23;21.30;;;8.18;;
26311;SDS011;14019;56.964;24.016;2023-02-15T09:29:09;16.75;;;7.70;;
26311;SDS011;14019;56.964;24.016;2023-02-15T09:31:56;21.35;;;7.82;;
26311;SDS011;14019;56.964;24.016;2023-02-15T09:34:42;49.67;;;8.23;;
26311;SDS011;14019;56.964;24.016;2023-02-15T09:37:29;19.05;;;7.75;;
26311;SDS011;14019;56.964;24.016;2023-02-15T09:40:17;39.75;;;8.70;;
26311;SDS011;14019;56.964;24.016;2023-02-15T09:43:07;19.08;;;8.20;;
26311;SDS011;14019;56.964;24.016;2023-02-15T09:46:08;42.45;;;8.25;;
26311;SDS011;14019;56.964;24.016;2023-02-15T10:20:41;12.73;;;6.20;;
26311;SDS011;14019;56.964;24.016;2023-02-15T10:23:52;12.33;;;6.00;;
26311;SDS011;14019;56.964;24.016;2023-02-15T10:26:48;11.70;;;6.07;;
26311;SDS011;14019;56.964;24.016;2023-02-15T10:29:36;14.55;;;6.30;;
26311;SDS011;14019;56.964;24.016;2023-02-15T10:32:27;10.98;;;5.90;;
26311;SDS011;14019;56.964;24.016;2023-02-15T10:47:08;10.27;;;5.32;;
26311;SDS011;14019;56.964;24.016;2023-02-15T10:56:24;13.23;;;5.80;;
26311;SDS011;14019;56.964;24.016;2023-02-15T11:02:51;16.42;;;6.57;;
26311;SDS011;14019;56.964;24.016;2023-02-15T11:08:57;7.82;;;4.07;;
26311;SDS011;14019;56.964;24.016;2023-02-15T11:11:50;19.92;;;8.43;;
26311;SDS011;14019;56.964;24.016;2023-02-15T11:18:19;9.63;;;4.28;;
26311;SDS011;14019;56.964;24.016;2023-02-15T11:24:18;9.85;;;5.38;;
26311;SDS011;14019;56.964;24.016;2023-02-15T11:27:10;10.07;;;5.53;;
26311;SDS011;14019;56.964;24.016;2023-02-15T11:30:02;8.90;;;4.72;;
26311;SDS011;14019;56.964;24.016;2023-02-15T11:32:55;8.55;;;4.82;;
26311;SDS011;14019;56.964;24.016;2023-02-15T11:35:59;8.20;;;4.60;;
26311;SDS011;14019;56.964;24.016;2023-02-15T11:38:49;8.18;;;4.50;;
26311;SDS011;14019;56.964;24.016;2023-02-15T11:41:44;8.52;;;4.47;;
26311;SDS011;14019;56.964;24.016;2023-02-15T11:44:37;10.35;;;5.28;;
26311;SDS011;14019;56.964;24.016;2023-02-15T11:47:28;7.57;;;4.28;;
26311;SDS011;14019;56.964;24.016;2023-02-15T11:50:15;7.72;;;4.00;;
26311;SDS011;14019;56.964;24.016;2023-02-15T11:56:16;6.43;;;3.78;;
26311;SDS011;14019;56.964;24.016;2023-02-15T11:59:11;6.10;;;3.58;;
26311;SDS011;14019;56.964;24.016;2023-02-15T12:02:21;9.30;;;4.65;;
26311;SDS011;14019;56.964;24.016;2023-02-15T12:05:15;12.48;;;4.80;;
26311;SDS011;14019;56.964;24.016;2023-02-15T12:08:09;10.52;;;4.55;;
26311;SDS011;14019;56.964;24.016;2023-02-15T12:11:06;7.90;;;4.22;;
26311;SDS011;14019;56.964;24.016;2023-02-15T12:14:02;9.63;;;4.55;;
26311;SDS011;14019;56.964;24.016;2023-02-15T12:16:53;8.68;;;4.63;;
26311;SDS011;14019;56.964;24.016;2023-02-15T12:19:41;7.88;;;4.28;;
26311;SDS011;14019;56.964;24.016;2023-02-15T12:22:29;8.32;;;4.30;;
26311;SDS011;14019;56.964;24.016;2023-02-15T12:25:22;9.07;;;4.78;;
26311;SDS011;14019;56.964;24.016;2023-02-15T12:28:25;8.52;;;4.57;;
26311;SDS011;14019;56.964;24.016;2023-02-15T12:31:21;10.75;;;4.60;;
26311;SDS011;14019;56.964;24.016;2023-02-15T12:34:09;11.25;;;5.88;;
26311;SDS011;14019;56.964;24.016;2023-02-15T12:37:21;13.35;;;6.07;;
26311;SDS011;14019;56.964;24.016;2023-02-15T12:40:29;12.70;;;6.35;;
26311;SDS011;14019;56.964;24.016;2023-02-15T12:43:24;11.25;;;5.50;;
26311;SDS011;14019;56.964;24.016;2023-02-15T12:46:25;9.68;;;5.43;;
26311;SDS011;14019;56.964;24.016;2023-02-15T12:49:18;10.95;;;5.10;;
26311;SDS011;14019;56.964;24.016;2023-02-15T12:52:13;10.85;;;4.93;;
26311;SDS011;14019;56.964;24.016;2023-02-15T12:55:26;10.93;;;4.90;;
26311;SDS011;14019;56.964;24.016;2023-02-15T12:58:19;10.30;;;5.28;;
26311;SDS011;14019;56.964;24.016;2023-02-15T13:06:59;11.73;;;5.57;;
26311;SDS011;14019;56.964;24.016;2023-02-15T13:09:47;12.23;;;6.32;;
26311;SDS011;14019;56.964;24.016;2023-02-15T13:12:34;12.63;;;6.32;;
26311;SDS011;14019;56.964;24.016;2023-02-15T13:15:39;12.90;;;6.95;;
26311;SDS011;14019;56.964;24.016;2023-02-15T13:18:46;15.25;;;7.32;;
26311;SDS011;14019;56.964;24.016;2023-02-15T13:21:37;15.57;;;7.50;;
26311;SDS011;14019;56.964;24.016;2023-02-15T13:25:01;15.32;;;7.57;;
26311;SDS011;14019;56.964;24.016;2023-02-15T13:27:40;14.48;;;7.32;;
26311;SDS011;14019;56.964;24.016;2023-02-15T13:30:35;15.52;;;7.93;;
26311;SDS011;14019;56.964;24.016;2023-02-15T13:33:25;17.08;;;8.15;;
26311;SDS011;14019;56.964;24.016;2023-02-15T13:39:35;15.52;;;7.57;;
26311;SDS011;14019;56.964;24.016;2023-02-15T13:42:25;19.45;;;7.60;;
26311;SDS011;14019;56.964;24.016;2023-02-15T13:48:58;14.07;;;7.07;;
26311;SDS011;14019;56.964;24.016;2023-02-15T14:16:54;18.63;;;9.30;;
26311;SDS011;14019;56.964;24.016;2023-02-15T14:19:56;21.65;;;9.68;;
26311;SDS011;14019;56.964;24.016;2023-02-15T14:23:02;20.60;;;9.48;;
26311;SDS011;14019;56.964;24.016;2023-02-15T14:25:59;19.45;;;9.00;;
26311;SDS011;14019;56.964;24.016;2023-02-15T14:32:38;21.08;;;9.20;;
26311;SDS011;14019;56.964;24.016;2023-02-15T14:35:30;22.05;;;9.75;;
26311;SDS011;14019;56.964;24.016;2023-02-15T14:41:42;23.30;;;11.63;;
26311;SDS011;14019;56.964;24.016;2023-02-15T14:44:39;29.83;;;11.65;;
26311;SDS011;14019;56.964;24.016;2023-02-15T14:47:44;27.35;;;12.25;;
26311;SDS011;14019;56.964;24.016;2023-02-15T14:50:43;23.65;;;9.80;;
26311;SDS011;14019;56.964;24.016;2023-02-15T14:56:22;27.83;;;13.55;;
26311;SDS011;14019;56.964;24.016;2023-02-15T15:05:17;28.97;;;13.10;;
26311;SDS011;14019;56.964;24.016;2023-02-15T15:08:05;26.83;;;12.93;;
26311;SDS011;14019;56.964;24.016;2023-02-15T15:10:51;29.70;;;13.18;;
26311;SDS011;14019;56.964;24.016;2023-02-15T15:13:38;26.17;;;12.48;;
26311;SDS011;14019;56.964;24.016;2023-02-15T15:22:36;27.40;;;12.07;;
26311;SDS011;14019;56.964;24.016;2023-02-15T15:40:40;33.55;;;15.00;;
26311;SDS011;14019;56.964;24.016;2023-02-15T15:47:12;34.75;;;14.80;;
26311;SDS011;14019;56.964;24.016;2023-02-15T15:50:11;29.40;;;14.88;;
26311;SDS011;14019;56.964;24.016;2023-02-15T15:53:00;39.03;;;16.08;;
26311;SDS011;14019;56.964;24.016;2023-02-15T15:55:48;33.83;;;16.35;;
26311;SDS011;14019;56.964;24.016;2023-02-15T15:58:40;32.30;;;15.52;;
26311;SDS011;14019;56.964;24.016;2023-02-15T16:01:31;38.55;;;16.83;;
26311;SDS011;14019;56.964;24.016;2023-02-15T16:04:26;35.92;;;16.02;;
26311;SDS011;14019;56.964;24.016;2023-02-15T16:10:04;38.38;;;16.95;;
26311;SDS011;14019;56.964;24.016;2023-02-15T16:13:05;36.17;;;16.05;;
26311;SDS011;14019;56.964;24.016;2023-02-15T16:15:52;39.22;;;16.40;;
26311;SDS011;14019;56.964;24.016;2023-02-15T16:18:40;35.08;;;16.58;;
26311;SDS011;14019;56.964;24.016;2023-02-15T16:21:31;34.95;;;16.10;;
26311;SDS011;14019;56.964;24.016;2023-02-15T16:24:32;31.55;;;15.52;;
26311;SDS011;14019;56.964;24.016;2023-02-15T16:30:21;37.08;;;16.52;;
26311;SDS011;14019;56.964;24.016;2023-02-15T16:33:16;32.92;;;15.50;;
26311;SDS011;14019;56.964;24.016;2023-02-15T16:36:02;33.70;;;15.73;;
26311;SDS011;14019;56.964;24.016;2023-02-15T16:41:42;37.40;;;15.73;;
26311;SDS011;14019;56.964;24.016;2023-02-15T16:44:31;35.22;;;16.23;;
26311;SDS011;14019;56.964;24.016;2023-02-15T16:47:23;36.10;;;16.50;;
26311;SDS011;14019;56.964;24.016;2023-02-15T16:50:19;38.35;;;15.63;;
26311;SDS011;14019;56.964;24.016;2023-02-15T16:53:13;33.83;;;15.32;;
26311;SDS011;14019;56.964;24.016;2023-02-15T16:56:04;37.50;;;16.73;;
26311;SDS011;14019;56.964;24.016;2023-02-15T16:58:50;37.28;;;16.73;;
26311;SDS011;14019;56.964;24.016;2023-02-15T17:01:39;33.38;;;16.20;;
26311;SDS011;14019;56.964;24.016;2023-02-15T17:04:29;33.85;;;16.52;;
26311;SDS011;14019;56.964;24.016;2023-02-15T17:07:17;34.70;;;15.75;;
26311;SDS011;14019;56.964;24.016;2023-02-15T17:10:15;33.78;;;15.30;;
26311;SDS011;14019;56.964;24.016;2023-02-15T17:13:15;36.75;;;15.35;;
26311;SDS011;14019;56.964;24.016;2023-02-15T17:18:49;30.70;;;14.13;;
26311;SDS011;14019;56.964;24.016;2023-02-15T17:21:44;32.80;;;14.60;;
26311;SDS011;14019;56.964;24.016;2023-02-15T17:24:37;29.90;;;14.13;;
26311;SDS011;14019;56.964;24.016;2023-02-15T17:27:26;35.35;;;14.75;;
26311;SDS011;14019;56.964;24.016;2023-02-15T17:30:17;31.27;;;13.75;;
26311;SDS011;14019;56.964;24.016;2023-02-15T17:39:18;36.17;;;16.73;;
26311;SDS011;14019;56.964;24.016;2023-02-15T17:42:08;38.65;;;17.33;;
26311;SDS011;14019;56.964;24.016;2023-02-15T17:44:54;38.85;;;16.35;;
26311;SDS011;14019;56.964;24.016;2023-02-15T17:47:40;38.15;;;16.20;;
26311;SDS011;14019;56.964;24.016;2023-02-15T17:50:27;37.08;;;16.73;;
26311;SDS011;14019;56.964;24.016;2023-02-15T17:53:16;38.92;;;16.98;;
26311;SDS011;14019;56.964;24.016;2023-02-15T17:56:04;37.13;;;16.85;;
26311;SDS011;14019;56.964;24.016;2023-02-15T17:58:54;42.42;;;16.23;;
26311;SDS011;14019;56.964;24.016;2023-02-15T18:01:44;39.95;;;16.88;;
26311;SDS011;14019;56.964;24.016;2023-02-15T18:04:51;37.67;;;16.20;;
26311;SDS011;14019;56.964;24.016;2023-02-15T18:07:56;38.22;;;16.08;;
26311;SDS011;14019;56.964;24.016;2023-02-15T18:11:00;41.42;;;17.88;;
26311;SDS011;14019;56.964;24.016;2023-02-15T18:14:09;35.95;;;15.68;;
26311;SDS011;14019;56.964;24.016;2023-02-15T18:16:55;35.88;;;16.15;;
26311;SDS011;14019;56.964;24.016;2023-02-15T18:19:42;34.15;;;15.13;;
26311;SDS011;14019;56.964;24.016;2023-02-15T18:22:29;33.42;;;15.85;;
26311;SDS011;14019;56.964;24.016;2023-02-15T18:25:18;35.97;;;15.68;;
26311;SDS011;14019;56.964;24.016;2023-02-15T18:28:05;32.92;;;15.02;;
26311;SDS011;14019;56.964;24.016;2023-02-15T18:30:51;33.70;;;15.18;;
26311;SDS011;14019;56.964;24.016;2023-02-15T18:33:41;32.15;;;14.20;;
26311;SDS011;14019;56.964;24.016;2023-02-15T18:36:33;30.88;;;14.52;;
26311;SDS011;14019;56.964;24.016;2023-02-15T18:39:40;37.55;;;15.52;;
26311;SDS011;14019;56.964;24.016;2023-02-15T18:42:32;33.67;;;15.00;;
26311;SDS011;14019;56.964;24.016;2023-02-15T18:45:22;32.92;;;14.38;;
26311;SDS011;14019;56.964;24.016;2023-02-15T18:48:16;38.17;;;14.30;;
26311;SDS011;14019;56.964;24.016;2023-02-15T18:51:03;36.10;;;14.93;;
26311;SDS011;14019;56.964;24.016;2023-02-15T18:53:53;31.58;;;14.20;;
26311;SDS011;14019;56.964;24.016;2023-02-15T18:56:39;32.80;;;14.00;;
26311;SDS011;14019;56.964;24.016;2023-02-15T18:59:26;29.55;;;13.15;;
26311;SDS011;14019;56.964;24.016;2023-02-15T19:02:15;30.02;;;14.00;;
26311;SDS011;14019;56.964;24.016;2023-02-15T19:05:03;33.85;;;14.10;;
26311;SDS011;14019;56.964;24.016;2023-02-15T19:07:50;29.02;;;13.27;;
26311;SDS011;14019;56.964;24.016;2023-02-15T19:10:36;32.78;;;13.82;;
26311;SDS011;14019;56.964;24.016;2023-02-15T19:13:22;33.95;;;14.10;;
26311;SDS011;14019;56.964;24.016;2023-02-15T19:16:13;35.67;;;14.55;;
26311;SDS011;14019;56.964;24.016;2023-02-15T19:19:04;31.00;;;13.60;;
26311;SDS011;14019;56.964;24.016;2023-02-15T19:21:51;33.10;;;13.30;;
26311;SDS011;14019;56.964;24.016;2023-02-15T19:24:38;31.65;;;13.70;;
26311;SDS011;14019;56.964;24.016;2023-02-15T19:27:29;30.50;;;13.52;;
26311;SDS011;14019;56.964;24.016;2023-02-15T19:30:21;28.80;;;12.52;;
26311;SDS011;14019;56.964;24.016;2023-02-15T19:33:17;33.92;;;13.77;;
26311;SDS011;14019;56.964;24.016;2023-02-15T19:36:05;30.25;;;13.25;;
26311;SDS011;14019;56.964;24.016;2023-02-15T19:39:07;31.83;;;13.45;;
26311;SDS011;14019;56.964;24.016;2023-02-15T19:42:21;30.20;;;12.57;;
26311;SDS011;14019;56.964;24.016;2023-02-15T19:45:16;27.63;;;12.48;;
26311;SDS011;14019;56.964;24.016;2023-02-15T19:48:12;31.33;;;12.75;;
26311;SDS011;14019;56.964;24.016;2023-02-15T19:51:02;28.75;;;11.88;;
26311;SDS011;14019;56.964;24.016;2023-02-15T19:53:49;28.20;;;11.82;;
26311;SDS011;14019;56.964;24.016;2023-02-15T19:56:36;28.08;;;12.20;;